sensor_id;sensor_type;location;lat;lon;timestamp;P1;durP1;ratioP1;P2;durP2;ratioP2
54921;SDS011;40824;45.116;21.296;2023-03-01T00:00:04;51.95;;;33.67;;
54921;SDS011;40824;45.116;21.296;2023-03-01T00:02:32;50.65;;;32.47;;
54921;SDS011;40824;45.116;21.296;2023-03-01T00:04:58;55.72;;;34.58;;
54921;SDS011;40824;45.116;21.296;2023-03-01T00:07:24;49.50;;;33.78;;
54921;SDS011;40824;45.116;21.296;2023-03-01T00:09:50;52.58;;;34.65;;
54921;SDS011;40824;45.116;21.296;2023-03-01T00:12:16;52.28;;;35.05;;
54921;SDS011;40824;45.116;21.296;2023-03-01T00:14:42;52.22;;;32.88;;
54921;SDS011;40824;45.116;21.296;2023-03-01T00:17:08;48.78;;;32.65;;
54921;SDS011;40824;45.116;21.296;2023-03-01T00:19:34;48.67;;;33.88;;
54921;SDS011;40824;45.116;21.296;2023-03-01T00:22:00;55.10;;;36.70;;
54921;SDS011;40824;45.116;21.296;2023-03-01T00:24:27;49.55;;;33.22;;
54921;SDS011;40824;45.116;21.296;2023-03-01T00:26:53;48.90;;;32.38;;
54921;SDS011;40824;45.116;21.296;2023-03-01T00:29:23;54.30;;;33.65;;
54921;SDS011;40824;45.116;21.296;2023-03-01T00:31:49;46.72;;;31.67;;
54921;SDS011;40824;45.116;21.296;2023-03-01T00:34:16;47.60;;;32.28;;
54921;SDS011;40824;45.116;21.296;2023-03-01T00:36:42;48.38;;;32.85;;
54921;SDS011;40824;45.116;21.296;2023-03-01T00:39:10;49.75;;;33.13;;
54921;SDS011;40824;45.116;21.296;2023-03-01T00:41:37;50.45;;;34.25;;
54921;SDS011;40824;45.116;21.296;2023-03-01T00:44:03;49.33;;;33.47;;
54921;SDS011;40824;45.116;21.296;2023-03-01T00:46:29;45.78;;;31.67;;
54921;SDS011;40824;45.116;21.296;2023-03-01T00:48:55;47.30;;;32.50;;
54921;SDS011;40824;45.116;21.296;2023-03-01T00:51:23;46.17;;;32.25;;
54921;SDS011;40824;45.116;21.296;2023-03-01T00:53:54;58.40;;;38.78;;
54921;SDS011;40824;45.116;21.296;2023-03-01T00:56:21;55.92;;;36.78;;
54921;SDS011;40824;45.116;21.296;2023-03-01T00:58:48;55.15;;;35.53;;
54921;SDS011;40824;45.116;21.296;2023-03-01T01:01:18;47.70;;;32.10;;
54921;SDS011;40824;45.116;21.296;2023-03-01T01:06:16;49.03;;;32.28;;
54921;SDS011;40824;45.116;21.296;2023-03-01T01:08:42;48.50;;;33.08;;
54921;SDS011;40824;45.116;21.296;2023-03-01T01:11:09;53.80;;;34.97;;
54921;SDS011;40824;45.116;21.296;2023-03-01T01:13:37;60.25;;;36.63;;
54921;SDS011;40824;45.116;21.296;2023-03-01T01:16:03;78.15;;;43.72;;
54921;SDS011;40824;45.116;21.296;2023-03-01T01:18:30;68.53;;;40.75;;
54921;SDS011;40824;45.116;21.296;2023-03-01T01:20:56;70.65;;;40.28;;
54921;SDS011;40824;45.116;21.296;2023-03-01T01:23:22;72.90;;;44.35;;
54921;SDS011;40824;45.116;21.296;2023-03-01T01:25:48;101.63;;;50.25;;
54921;SDS011;40824;45.116;21.296;2023-03-01T01:28:14;114.40;;;53.13;;
54921;SDS011;40824;45.116;21.296;2023-03-01T01:30:40;122.80;;;62.55;;
54921;SDS011;40824;45.116;21.296;2023-03-01T01:33:08;128.80;;;66.00;;
54921;SDS011;40824;45.116;21.296;2023-03-01T01:35:34;111.05;;;56.92;;
54921;SDS011;40824;45.116;21.296;2023-03-01T01:38:00;86.55;;;48.35;;
54921;SDS011;40824;45.116;21.296;2023-03-01T01:40:26;78.25;;;49.03;;
54921;SDS011;40824;45.116;21.296;2023-03-01T01:42:52;66.72;;;43.33;;
54921;SDS011;40824;45.116;21.296;2023-03-01T01:47:50;67.63;;;41.88;;
54921;SDS011;40824;45.116;21.296;2023-03-01T01:50:17;63.25;;;39.22;;
54921;SDS011;40824;45.116;21.296;2023-03-01T01:52:44;68.00;;;39.90;;
54921;SDS011;40824;45.116;21.296;2023-03-01T01:55:12;62.65;;;40.45;;
54921;SDS011;40824;45.116;21.296;2023-03-01T01:57:41;60.13;;;38.33;;
54921;SDS011;40824;45.116;21.296;2023-03-01T02:00:10;59.42;;;37.97;;
54921;SDS011;40824;45.116;21.296;2023-03-01T02:02:37;63.95;;;38.15;;
54921;SDS011;40824;45.116;21.296;2023-03-01T02:05:25;59.90;;;38.63;;
54921;SDS011;40824;45.116;21.296;2023-03-01T02:07:52;59.67;;;38.17;;
54921;SDS011;40824;45.116;21.296;2023-03-01T02:10:19;61.33;;;39.83;;
54921;SDS011;40824;45.116;21.296;2023-03-01T02:12:45;57.83;;;36.97;;
54921;SDS011;40824;45.116;21.296;2023-03-01T02:15:11;59.33;;;37.22;;
54921;SDS011;40824;45.116;21.296;2023-03-01T02:17:37;63.60;;;39.42;;
54921;SDS011;40824;45.116;21.296;2023-03-01T02:22:36;58.85;;;35.95;;
54921;SDS011;40824;45.116;21.296;2023-03-01T02:27:56;59.45;;;37.20;;
54921;SDS011;40824;45.116;21.296;2023-03-01T02:30:24;59.85;;;37.70;;
54921;SDS011;40824;45.116;21.296;2023-03-01T02:32:51;56.08;;;35.72;;
54921;SDS011;40824;45.116;21.296;2023-03-01T02:35:18;56.13;;;36.13;;
54921;SDS011;40824;45.116;21.296;2023-03-01T02:37:45;60.15;;;36.35;;
54921;SDS011;40824;45.116;21.296;2023-03-01T02:40:15;59.63;;;35.53;;
54921;SDS011;40824;45.116;21.296;2023-03-01T02:42:56;49.72;;;33.00;;
54921;SDS011;40824;45.116;21.296;2023-03-01T02:45:22;58.28;;;37.70;;
54921;SDS011;40824;45.116;21.296;2023-03-01T02:47:48;56.20;;;33.88;;
54921;SDS011;40824;45.116;21.296;2023-03-01T02:52:57;57.38;;;35.78;;
54921;SDS011;40824;45.116;21.296;2023-03-01T02:55:27;54.65;;;34.42;;
54921;SDS011;40824;45.116;21.296;2023-03-01T02:57:53;59.33;;;36.85;;
54921;SDS011;40824;45.116;21.296;2023-03-01T03:00:23;51.28;;;33.10;;
54921;SDS011;40824;45.116;21.296;2023-03-01T03:02:50;57.53;;;34.70;;
54921;SDS011;40824;45.116;21.296;2023-03-01T03:05:21;56.65;;;37.13;;
54921;SDS011;40824;45.116;21.296;2023-03-01T03:07:48;60.92;;;37.58;;
54921;SDS011;40824;45.116;21.296;2023-03-01T03:10:19;63.35;;;37.08;;
54921;SDS011;40824;45.116;21.296;2023-03-01T03:12:52;58.38;;;38.38;;
54921;SDS011;40824;45.116;21.296;2023-03-01T03:15:19;57.28;;;35.95;;
54921;SDS011;40824;45.116;21.296;2023-03-01T03:17:45;58.58;;;37.45;;
54921;SDS011;40824;45.116;21.296;2023-03-01T03:20:13;60.50;;;36.25;;
54921;SDS011;40824;45.116;21.296;2023-03-01T03:22:44;60.47;;;37.28;;
54921;SDS011;40824;45.116;21.296;2023-03-01T03:25:10;61.45;;;38.03;;
54921;SDS011;40824;45.116;21.296;2023-03-01T03:27:39;61.47;;;38.38;;
54921;SDS011;40824;45.116;21.296;2023-03-01T03:30:06;56.00;;;36.30;;
54921;SDS011;40824;45.116;21.296;2023-03-01T03:32:37;60.83;;;36.78;;
54921;SDS011;40824;45.116;21.296;2023-03-01T03:35:04;56.85;;;36.15;;
54921;SDS011;40824;45.116;21.296;2023-03-01T03:37:37;57.40;;;36.17;;
54921;SDS011;40824;45.116;21.296;2023-03-01T03:40:22;49.35;;;33.22;;
54921;SDS011;40824;45.116;21.296;2023-03-01T03:42:48;52.25;;;33.38;;
54921;SDS011;40824;45.116;21.296;2023-03-01T03:45:15;54.97;;;33.92;;
54921;SDS011;40824;45.116;21.296;2023-03-01T03:47:41;53.75;;;33.80;;
54921;SDS011;40824;45.116;21.296;2023-03-01T03:50:08;50.20;;;33.13;;
54921;SDS011;40824;45.116;21.296;2023-03-01T03:52:34;51.78;;;33.67;;
54921;SDS011;40824;45.116;21.296;2023-03-01T03:55:00;51.90;;;32.83;;
54921;SDS011;40824;45.116;21.296;2023-03-01T03:57:34;52.63;;;34.58;;
54921;SDS011;40824;45.116;21.296;2023-03-01T04:00:00;47.17;;;33.45;;
54921;SDS011;40824;45.116;21.296;2023-03-01T04:02:28;51.53;;;33.20;;
54921;SDS011;40824;45.116;21.296;2023-03-01T04:04:55;48.30;;;31.45;;
54921;SDS011;40824;45.116;21.296;2023-03-01T04:07:21;49.92;;;32.60;;
54921;SDS011;40824;45.116;21.296;2023-03-01T04:09:47;49.58;;;32.47;;
54921;SDS011;40824;45.116;21.296;2023-03-01T04:12:13;48.70;;;32.50;;
54921;SDS011;40824;45.116;21.296;2023-03-01T04:14:39;51.53;;;32.40;;
54921;SDS011;40824;45.116;21.296;2023-03-01T04:17:05;50.75;;;33.05;;
54921;SDS011;40824;45.116;21.296;2023-03-01T04:19:32;50.78;;;32.13;;
54921;SDS011;40824;45.116;21.296;2023-03-01T04:22:01;52.67;;;31.30;;
54921;SDS011;40824;45.116;21.296;2023-03-01T04:24:32;50.92;;;32.55;;
54921;SDS011;40824;45.116;21.296;2023-03-01T04:26:58;51.05;;;32.47;;
54921;SDS011;40824;45.116;21.296;2023-03-01T04:29:25;47.80;;;31.35;;
54921;SDS011;40824;45.116;21.296;2023-03-01T04:31:51;51.75;;;32.78;;
54921;SDS011;40824;45.116;21.296;2023-03-01T04:34:17;51.15;;;32.25;;
54921;SDS011;40824;45.116;21.296;2023-03-01T04:36:44;51.70;;;32.97;;
54921;SDS011;40824;45.116;21.296;2023-03-01T04:39:10;49.20;;;31.92;;
54921;SDS011;40824;45.116;21.296;2023-03-01T04:41:39;48.65;;;31.45;;
54921;SDS011;40824;45.116;21.296;2023-03-01T04:44:06;51.17;;;33.15;;
54921;SDS011;40824;45.116;21.296;2023-03-01T04:46:34;48.85;;;31.60;;
54921;SDS011;40824;45.116;21.296;2023-03-01T04:49:00;46.22;;;31.27;;
54921;SDS011;40824;45.116;21.296;2023-03-01T04:51:26;51.75;;;32.20;;
54921;SDS011;40824;45.116;21.296;2023-03-01T04:53:54;47.25;;;31.35;;
54921;SDS011;40824;45.116;21.296;2023-03-01T04:56:20;48.67;;;32.22;;
54921;SDS011;40824;45.116;21.296;2023-03-01T04:58:48;51.65;;;33.10;;
54921;SDS011;40824;45.116;21.296;2023-03-01T05:01:16;52.88;;;33.28;;
54921;SDS011;40824;45.116;21.296;2023-03-01T05:03:43;51.03;;;34.38;;
54921;SDS011;40824;45.116;21.296;2023-03-01T05:06:09;51.08;;;31.92;;
54921;SDS011;40824;45.116;21.296;2023-03-01T05:08:36;48.40;;;32.38;;
54921;SDS011;40824;45.116;21.296;2023-03-01T05:11:02;51.15;;;32.85;;
54921;SDS011;40824;45.116;21.296;2023-03-01T05:13:28;50.83;;;31.05;;
54921;SDS011;40824;45.116;21.296;2023-03-01T05:15:55;51.00;;;33.78;;
54921;SDS011;40824;45.116;21.296;2023-03-01T05:18:22;50.80;;;34.92;;
54921;SDS011;40824;45.116;21.296;2023-03-01T05:20:50;45.40;;;31.50;;
54921;SDS011;40824;45.116;21.296;2023-03-01T05:23:17;47.00;;;31.95;;
54921;SDS011;40824;45.116;21.296;2023-03-01T05:25:43;47.33;;;32.35;;
54921;SDS011;40824;45.116;21.296;2023-03-01T05:28:13;46.60;;;32.35;;
54921;SDS011;40824;45.116;21.296;2023-03-01T05:30:39;46.42;;;31.75;;
54921;SDS011;40824;45.116;21.296;2023-03-01T05:33:05;47.63;;;32.92;;
54921;SDS011;40824;45.116;21.296;2023-03-01T05:35:38;45.17;;;31.63;;
54921;SDS011;40824;45.116;21.296;2023-03-01T05:38:04;47.63;;;34.22;;
54921;SDS011;40824;45.116;21.296;2023-03-01T05:40:32;43.60;;;33.20;;
54921;SDS011;40824;45.116;21.296;2023-03-01T05:42:59;42.45;;;32.20;;
54921;SDS011;40824;45.116;21.296;2023-03-01T05:45:26;43.83;;;31.05;;
54921;SDS011;40824;45.116;21.296;2023-03-01T05:47:53;44.53;;;31.65;;
54921;SDS011;40824;45.116;21.296;2023-03-01T05:50:21;47.85;;;32.90;;
54921;SDS011;40824;45.116;21.296;2023-03-01T05:52:51;46.10;;;31.00;;
54921;SDS011;40824;45.116;21.296;2023-03-01T05:55:19;46.15;;;32.28;;
54921;SDS011;40824;45.116;21.296;2023-03-01T05:57:45;51.05;;;35.75;;
54921;SDS011;40824;45.116;21.296;2023-03-01T06:00:12;56.53;;;38.95;;
54921;SDS011;40824;45.116;21.296;2023-03-01T06:02:39;50.53;;;35.33;;
54921;SDS011;40824;45.116;21.296;2023-03-01T06:05:06;52.40;;;33.97;;
54921;SDS011;40824;45.116;21.296;2023-03-01T06:07:33;46.83;;;34.72;;
54921;SDS011;40824;45.116;21.296;2023-03-01T06:09:59;49.97;;;34.85;;
54921;SDS011;40824;45.116;21.296;2023-03-01T06:12:25;45.60;;;30.67;;
54921;SDS011;40824;45.116;21.296;2023-03-01T06:14:51;44.65;;;31.60;;
54921;SDS011;40824;45.116;21.296;2023-03-01T06:17:17;51.38;;;35.60;;
54921;SDS011;40824;45.116;21.296;2023-03-01T06:19:43;42.22;;;30.40;;
54921;SDS011;40824;45.116;21.296;2023-03-01T06:22:12;47.33;;;32.25;;
54921;SDS011;40824;45.116;21.296;2023-03-01T06:24:38;45.58;;;31.75;;
54921;SDS011;40824;45.116;21.296;2023-03-01T06:27:04;40.35;;;30.15;;
54921;SDS011;40824;45.116;21.296;2023-03-01T06:29:30;41.67;;;29.85;;
54921;SDS011;40824;45.116;21.296;2023-03-01T06:31:56;47.92;;;32.50;;
54921;SDS011;40824;45.116;21.296;2023-03-01T06:34:22;48.53;;;33.22;;
54921;SDS011;40824;45.116;21.296;2023-03-01T06:36:49;48.38;;;32.33;;
54921;SDS011;40824;45.116;21.296;2023-03-01T06:39:15;48.28;;;30.48;;
54921;SDS011;40824;45.116;21.296;2023-03-01T06:41:42;42.17;;;31.25;;
54921;SDS011;40824;45.116;21.296;2023-03-01T06:44:09;45.38;;;28.92;;
54921;SDS011;40824;45.116;21.296;2023-03-01T06:46:35;47.90;;;28.90;;
54921;SDS011;40824;45.116;21.296;2023-03-01T06:49:04;47.78;;;33.03;;
54921;SDS011;40824;45.116;21.296;2023-03-01T06:51:35;46.47;;;33.05;;
54921;SDS011;40824;45.116;21.296;2023-03-01T06:54:02;42.70;;;31.13;;
54921;SDS011;40824;45.116;21.296;2023-03-01T06:56:28;47.13;;;31.05;;
54921;SDS011;40824;45.116;21.296;2023-03-01T06:58:54;50.42;;;29.95;;
54921;SDS011;40824;45.116;21.296;2023-03-01T07:01:20;51.65;;;30.33;;
54921;SDS011;40824;45.116;21.296;2023-03-01T07:03:47;58.40;;;33.10;;
54921;SDS011;40824;45.116;21.296;2023-03-01T07:06:13;52.78;;;32.22;;
54921;SDS011;40824;45.116;21.296;2023-03-01T07:08:39;52.63;;;30.65;;
54921;SDS011;40824;45.116;21.296;2023-03-01T07:11:05;47.00;;;30.10;;
54921;SDS011;40824;45.116;21.296;2023-03-01T07:13:31;52.20;;;33.80;;
54921;SDS011;40824;45.116;21.296;2023-03-01T07:15:57;51.80;;;32.47;;
54921;SDS011;40824;45.116;21.296;2023-03-01T07:18:23;49.13;;;33.45;;
54921;SDS011;40824;45.116;21.296;2023-03-01T07:20:49;49.72;;;32.75;;
54921;SDS011;40824;45.116;21.296;2023-03-01T07:23:16;51.10;;;32.90;;
54921;SDS011;40824;45.116;21.296;2023-03-01T07:25:42;46.72;;;30.17;;
54921;SDS011;40824;45.116;21.296;2023-03-01T07:28:10;47.55;;;31.55;;
54921;SDS011;40824;45.116;21.296;2023-03-01T07:30:36;57.38;;;35.17;;
54921;SDS011;40824;45.116;21.296;2023-03-01T07:33:02;49.92;;;35.38;;
54921;SDS011;40824;45.116;21.296;2023-03-01T07:35:29;50.03;;;33.78;;
54921;SDS011;40824;45.116;21.296;2023-03-01T07:37:55;44.17;;;31.23;;
54921;SDS011;40824;45.116;21.296;2023-03-01T07:40:22;46.70;;;30.77;;
54921;SDS011;40824;45.116;21.296;2023-03-01T07:42:54;43.60;;;30.13;;
54921;SDS011;40824;45.116;21.296;2023-03-01T07:45:21;41.03;;;29.25;;
54921;SDS011;40824;45.116;21.296;2023-03-01T07:47:50;43.13;;;29.52;;
54921;SDS011;40824;45.116;21.296;2023-03-01T07:50:16;43.78;;;32.17;;
54921;SDS011;40824;45.116;21.296;2023-03-01T07:52:44;47.65;;;30.55;;
54921;SDS011;40824;45.116;21.296;2023-03-01T07:55:11;45.63;;;31.55;;
54921;SDS011;40824;45.116;21.296;2023-03-01T07:57:37;42.50;;;27.65;;
54921;SDS011;40824;45.116;21.296;2023-03-01T08:00:03;43.60;;;31.25;;
54921;SDS011;40824;45.116;21.296;2023-03-01T08:02:29;45.65;;;28.85;;
54921;SDS011;40824;45.116;21.296;2023-03-01T08:04:55;36.25;;;28.15;;
54921;SDS011;40824;45.116;21.296;2023-03-01T08:07:21;39.67;;;30.55;;
54921;SDS011;40824;45.116;21.296;2023-03-01T08:09:47;40.03;;;30.33;;
54921;SDS011;40824;45.116;21.296;2023-03-01T08:12:14;40.50;;;30.67;;
54921;SDS011;40824;45.116;21.296;2023-03-01T08:14:43;41.60;;;32.08;;
54921;SDS011;40824;45.116;21.296;2023-03-01T08:17:12;41.63;;;33.38;;
54921;SDS011;40824;45.116;21.296;2023-03-01T08:19:39;44.10;;;32.72;;
54921;SDS011;40824;45.116;21.296;2023-03-01T08:22:06;49.65;;;40.85;;
54921;SDS011;40824;45.116;21.296;2023-03-01T08:24:32;40.45;;;34.05;;
54921;SDS011;40824;45.116;21.296;2023-03-01T08:26:58;31.23;;;26.15;;
54921;SDS011;40824;45.116;21.296;2023-03-01T08:29:24;27.42;;;23.95;;
54921;SDS011;40824;45.116;21.296;2023-03-01T08:31:50;31.10;;;26.90;;
54921;SDS011;40824;45.116;21.296;2023-03-01T08:34:17;25.40;;;22.75;;
54921;SDS011;40824;45.116;21.296;2023-03-01T08:36:45;29.27;;;25.83;;
54921;SDS011;40824;45.116;21.296;2023-03-01T08:39:12;30.38;;;25.48;;
54921;SDS011;40824;45.116;21.296;2023-03-01T08:41:39;28.35;;;24.50;;
54921;SDS011;40824;45.116;21.296;2023-03-01T08:44:05;26.55;;;21.83;;
54921;SDS011;40824;45.116;21.296;2023-03-01T08:46:33;22.27;;;19.40;;
54921;SDS011;40824;45.116;21.296;2023-03-01T08:48:59;24.65;;;21.98;;
54921;SDS011;40824;45.116;21.296;2023-03-01T08:51:26;25.30;;;21.35;;
54921;SDS011;40824;45.116;21.296;2023-03-01T08:53:52;20.92;;;18.63;;
54921;SDS011;40824;45.116;21.296;2023-03-01T08:56:18;16.90;;;15.10;;
54921;SDS011;40824;45.116;21.296;2023-03-01T08:58:45;17.48;;;14.85;;
54921;SDS011;40824;45.116;21.296;2023-03-01T09:01:12;18.58;;;16.67;;
54921;SDS011;40824;45.116;21.296;2023-03-01T09:03:40;17.40;;;15.60;;
54921;SDS011;40824;45.116;21.296;2023-03-01T09:06:06;15.98;;;14.27;;
54921;SDS011;40824;45.116;21.296;2023-03-01T09:08:36;17.08;;;15.30;;
54921;SDS011;40824;45.116;21.296;2023-03-01T09:11:03;17.27;;;15.05;;
54921;SDS011;40824;45.116;21.296;2023-03-01T09:13:29;18.63;;;15.30;;
54921;SDS011;40824;45.116;21.296;2023-03-01T09:15:59;18.55;;;16.05;;
54921;SDS011;40824;45.116;21.296;2023-03-01T09:18:26;17.67;;;15.88;;
54921;SDS011;40824;45.116;21.296;2023-03-01T09:20:52;17.92;;;15.70;;
54921;SDS011;40824;45.116;21.296;2023-03-01T09:23:20;19.65;;;15.70;;
54921;SDS011;40824;45.116;21.296;2023-03-01T09:25:46;41.15;;;36.70;;
54921;SDS011;40824;45.116;21.296;2023-03-01T09:28:12;18.67;;;16.80;;
54921;SDS011;40824;45.116;21.296;2023-03-01T09:30:38;20.30;;;14.20;;
54921;SDS011;40824;45.116;21.296;2023-03-01T09:33:04;18.48;;;15.32;;
54921;SDS011;40824;45.116;21.296;2023-03-01T09:35:30;22.92;;;16.48;;
54921;SDS011;40824;45.116;21.296;2023-03-01T09:37:57;20.45;;;14.50;;
54921;SDS011;40824;45.116;21.296;2023-03-01T09:40:24;15.52;;;13.93;;
54921;SDS011;40824;45.116;21.296;2023-03-01T09:42:56;16.13;;;14.32;;
54921;SDS011;40824;45.116;21.296;2023-03-01T09:45:33;13.57;;;12.18;;
54921;SDS011;40824;45.116;21.296;2023-03-01T09:48:01;16.23;;;13.00;;
54921;SDS011;40824;45.116;21.296;2023-03-01T09:50:28;13.88;;;11.80;;
54921;SDS011;40824;45.116;21.296;2023-03-01T09:53:11;14.27;;;12.65;;
54921;SDS011;40824;45.116;21.296;2023-03-01T10:10:37;12.18;;;11.02;;
54921;SDS011;40824;45.116;21.296;2023-03-01T10:13:10;13.38;;;11.95;;
54921;SDS011;40824;45.116;21.296;2023-03-01T10:15:43;14.85;;;12.32;;
54921;SDS011;40824;45.116;21.296;2023-03-01T10:18:11;13.38;;;11.50;;
54921;SDS011;40824;45.116;21.296;2023-03-01T10:20:42;11.88;;;10.68;;
54921;SDS011;40824;45.116;21.296;2023-03-01T10:23:10;13.10;;;10.20;;
54921;SDS011;40824;45.116;21.296;2023-03-01T10:25:44;12.80;;;10.15;;
54921;SDS011;40824;45.116;21.296;2023-03-01T10:31:22;13.82;;;10.98;;
54921;SDS011;40824;45.116;21.296;2023-03-01T10:33:53;11.82;;;10.32;;
54921;SDS011;40824;45.116;21.296;2023-03-01T10:36:20;11.65;;;9.05;;
54921;SDS011;40824;45.116;21.296;2023-03-01T10:38:47;10.95;;;9.88;;
54921;SDS011;40824;45.116;21.296;2023-03-01T10:43:46;10.57;;;8.10;;
54921;SDS011;40824;45.116;21.296;2023-03-01T10:46:25;9.30;;;8.18;;
54921;SDS011;40824;45.116;21.296;2023-03-01T10:51:36;12.27;;;8.80;;
54921;SDS011;40824;45.116;21.296;2023-03-01T10:54:04;8.63;;;7.72;;
54921;SDS011;40824;45.116;21.296;2023-03-01T10:56:31;9.95;;;7.85;;
54921;SDS011;40824;45.116;21.296;2023-03-01T10:59:19;13.90;;;7.90;;
54921;SDS011;40824;45.116;21.296;2023-03-01T11:01:49;8.07;;;7.18;;
54921;SDS011;40824;45.116;21.296;2023-03-01T11:04:27;9.38;;;8.13;;
54921;SDS011;40824;45.116;21.296;2023-03-01T11:06:59;14.57;;;13.05;;
54921;SDS011;40824;45.116;21.296;2023-03-01T11:09:26;14.07;;;11.88;;
54921;SDS011;40824;45.116;21.296;2023-03-01T11:12:02;12.88;;;11.50;;
54921;SDS011;40824;45.116;21.296;2023-03-01T11:14:47;17.45;;;11.93;;
54921;SDS011;40824;45.116;21.296;2023-03-01T11:19:40;14.57;;;11.77;;
54921;SDS011;40824;45.116;21.296;2023-03-01T11:22:13;18.30;;;14.55;;
54921;SDS011;40824;45.116;21.296;2023-03-01T11:27:31;13.10;;;11.82;;
54921;SDS011;40824;45.116;21.296;2023-03-01T11:30:12;15.48;;;12.38;;
54921;SDS011;40824;45.116;21.296;2023-03-01T11:32:50;15.80;;;13.15;;
54921;SDS011;40824;45.116;21.296;2023-03-01T11:35:23;15.45;;;12.48;;
54921;SDS011;40824;45.116;21.296;2023-03-01T11:40:17;17.80;;;14.20;;
54921;SDS011;40824;45.116;21.296;2023-03-01T11:42:48;17.77;;;15.95;;
54921;SDS011;40824;45.116;21.296;2023-03-01T11:45:15;19.30;;;17.27;;
54921;SDS011;40824;45.116;21.296;2023-03-01T11:50:14;28.75;;;25.75;;
54921;SDS011;40824;45.116;21.296;2023-03-01T11:57:43;26.58;;;19.98;;
54921;SDS011;40824;45.116;21.296;2023-03-01T12:02:43;43.63;;;34.63;;
54921;SDS011;40824;45.116;21.296;2023-03-01T12:23:07;42.33;;;27.45;;
54921;SDS011;40824;45.116;21.296;2023-03-01T12:31:59;42.10;;;27.23;;
54921;SDS011;40824;45.116;21.296;2023-03-01T12:49:37;29.15;;;22.48;;
54921;SDS011;40824;45.116;21.296;2023-03-01T12:52:15;33.85;;;27.00;;
54921;SDS011;40824;45.116;21.296;2023-03-01T12:54:42;29.13;;;21.27;;
54921;SDS011;40824;45.116;21.296;2023-03-01T12:57:46;36.03;;;27.60;;
54921;SDS011;40824;45.116;21.296;2023-03-01T13:00:22;26.50;;;21.42;;
54921;SDS011;40824;45.116;21.296;2023-03-01T13:02:53;23.98;;;18.67;;
54921;SDS011;40824;45.116;21.296;2023-03-01T13:10:42;21.58;;;16.42;;
54921;SDS011;40824;45.116;21.296;2023-03-01T13:13:19;20.73;;;15.82;;
54921;SDS011;40824;45.116;21.296;2023-03-01T13:15:46;19.50;;;15.90;;
54921;SDS011;40824;45.116;21.296;2023-03-01T13:20:48;18.52;;;15.65;;
54921;SDS011;40824;45.116;21.296;2023-03-01T13:26:00;23.42;;;15.90;;
54921;SDS011;40824;45.116;21.296;2023-03-01T13:31:02;34.53;;;21.45;;
54921;SDS011;40824;45.116;21.296;2023-03-01T13:35:56;53.40;;;40.75;;
54921;SDS011;40824;45.116;21.296;2023-03-01T13:41:07;32.35;;;22.02;;
54921;SDS011;40824;45.116;21.296;2023-03-01T13:43:37;24.58;;;20.52;;
54921;SDS011;40824;45.116;21.296;2023-03-01T13:46:07;22.25;;;18.92;;
54921;SDS011;40824;45.116;21.296;2023-03-01T13:48:36;22.23;;;18.45;;
54921;SDS011;40824;45.116;21.296;2023-03-01T13:51:09;21.00;;;18.10;;
54921;SDS011;40824;45.116;21.296;2023-03-01T13:53:38;22.25;;;17.45;;
54921;SDS011;40824;45.116;21.296;2023-03-01T13:56:09;21.73;;;15.30;;
54921;SDS011;40824;45.116;21.296;2023-03-01T14:03:48;20.10;;;14.20;;
54921;SDS011;40824;45.116;21.296;2023-03-01T14:06:15;17.80;;;14.13;;
54921;SDS011;40824;45.116;21.296;2023-03-01T14:08:45;17.55;;;13.45;;
54921;SDS011;40824;45.116;21.296;2023-03-01T14:21:20;12.50;;;8.98;;
54921;SDS011;40824;45.116;21.296;2023-03-01T14:23:47;12.73;;;8.15;;
54921;SDS011;40824;45.116;21.296;2023-03-01T14:26:13;12.85;;;8.85;;
54921;SDS011;40824;45.116;21.296;2023-03-01T14:28:45;11.95;;;8.95;;
54921;SDS011;40824;45.116;21.296;2023-03-01T14:33:56;17.08;;;10.27;;
54921;SDS011;40824;45.116;21.296;2023-03-01T14:36:26;14.00;;;9.82;;
54921;SDS011;40824;45.116;21.296;2023-03-01T14:38:53;14.13;;;8.85;;
54921;SDS011;40824;45.116;21.296;2023-03-01T14:41:23;11.15;;;7.85;;
54921;SDS011;40824;45.116;21.296;2023-03-01T14:43:53;14.75;;;8.32;;
54921;SDS011;40824;45.116;21.296;2023-03-01T14:46:26;14.98;;;8.30;;
54921;SDS011;40824;45.116;21.296;2023-03-01T14:48:56;18.45;;;10.38;;
54921;SDS011;40824;45.116;21.296;2023-03-01T14:51:23;16.15;;;9.50;;
54921;SDS011;40824;45.116;21.296;2023-03-01T14:53:50;19.88;;;12.00;;
54921;SDS011;40824;45.116;21.296;2023-03-01T14:56:19;13.48;;;10.07;;
54921;SDS011;40824;45.116;21.296;2023-03-01T14:58:45;19.92;;;12.30;;
54921;SDS011;40824;45.116;21.296;2023-03-01T15:01:15;16.85;;;9.85;;
54921;SDS011;40824;45.116;21.296;2023-03-01T15:03:42;15.30;;;10.27;;
54921;SDS011;40824;45.116;21.296;2023-03-01T15:06:09;15.95;;;9.63;;
54921;SDS011;40824;45.116;21.296;2023-03-01T15:08:37;19.85;;;11.82;;
54921;SDS011;40824;45.116;21.296;2023-03-01T15:11:19;15.50;;;10.10;;
54921;SDS011;40824;45.116;21.296;2023-03-01T15:13:48;19.75;;;12.88;;
54921;SDS011;40824;45.116;21.296;2023-03-01T15:16:32;16.48;;;11.18;;
54921;SDS011;40824;45.116;21.296;2023-03-01T15:19:03;13.73;;;8.70;;
54921;SDS011;40824;45.116;21.296;2023-03-01T15:26:49;33.75;;;21.25;;
54921;SDS011;40824;45.116;21.296;2023-03-01T15:29:19;18.05;;;11.13;;
54921;SDS011;40824;45.116;21.296;2023-03-01T15:31:57;27.95;;;17.63;;
54921;SDS011;40824;45.116;21.296;2023-03-01T15:34:33;30.55;;;18.95;;
54921;SDS011;40824;45.116;21.296;2023-03-01T15:37:00;47.58;;;29.80;;
54921;SDS011;40824;45.116;21.296;2023-03-01T15:42:08;41.90;;;26.05;;
54921;SDS011;40824;45.116;21.296;2023-03-01T15:44:36;30.65;;;17.25;;
54921;SDS011;40824;45.116;21.296;2023-03-01T15:47:05;21.52;;;13.25;;
54921;SDS011;40824;45.116;21.296;2023-03-01T15:49:39;19.95;;;14.55;;
54921;SDS011;40824;45.116;21.296;2023-03-01T15:52:15;45.57;;;26.73;;
54921;SDS011;40824;45.116;21.296;2023-03-01T15:54:44;24.55;;;14.30;;
54921;SDS011;40824;45.116;21.296;2023-03-01T15:57:13;22.63;;;12.90;;
54921;SDS011;40824;45.116;21.296;2023-03-01T15:59:40;30.88;;;15.57;;
54921;SDS011;40824;45.116;21.296;2023-03-01T16:02:11;23.70;;;14.38;;
54921;SDS011;40824;45.116;21.296;2023-03-01T16:04:40;30.08;;;14.18;;
54921;SDS011;40824;45.116;21.296;2023-03-01T16:07:08;25.52;;;14.55;;
54921;SDS011;40824;45.116;21.296;2023-03-01T16:09:34;23.65;;;14.15;;
54921;SDS011;40824;45.116;21.296;2023-03-01T16:12:01;25.48;;;14.93;;
54921;SDS011;40824;45.116;21.296;2023-03-01T16:14:27;24.80;;;14.52;;
54921;SDS011;40824;45.116;21.296;2023-03-01T16:16:53;26.85;;;15.43;;
54921;SDS011;40824;45.116;21.296;2023-03-01T16:19:19;31.88;;;17.75;;
54921;SDS011;40824;45.116;21.296;2023-03-01T16:21:45;29.10;;;15.38;;
54921;SDS011;40824;45.116;21.296;2023-03-01T16:24:13;27.38;;;14.93;;
54921;SDS011;40824;45.116;21.296;2023-03-01T16:26:39;21.00;;;14.75;;
54921;SDS011;40824;45.116;21.296;2023-03-01T16:29:07;19.30;;;13.70;;
54921;SDS011;40824;45.116;21.296;2023-03-01T16:31:33;26.75;;;16.48;;